Time;durP1;ratioP1;P1;durP2;ratioP2;P2;SDS_P1;SDS_P2;PMS_P1;PMS_P2;Temp;Humidity;BMP_temperature;BMP_pressure;BME280_temperature;BME280_humidity;BME280_pressure;Samples;Min_cycle;Max_cycle;Signal;HPM_P1;HPM_P2
2022/09/29 00:00:42;;;;;;;9.90;8.82;;;;;;;5.64;100.00;99916.38;5029709;28;20544;-64
2022/09/29 00:03:08;;;;;;;9.70;8.88;;;;;;;5.61;100.00;99911.97;5029482;28;20108;-65
2022/09/29 00:05:33;;;;;;;9.83;8.93;;;;;;;5.60;100.00;99909.34;5029629;28;20036;-64
2022/09/29 00:07:59;;;;;;;9.23;8.32;;;;;;;5.56;100.00;99912.66;5029227;28;20457;-64
2022/09/29 00:10:24;;;;;;;10.00;9.00;;;;;;;5.53;100.00;99910.81;5029484;28;20040;-64
2022/09/29 00:12:49;;;;;;;8.87;8.07;;;;;;;5.48;100.00;99909.78;5029496;28;20039;-64
2022/09/29 00:15:15;;;;;;;9.95;9.00;;;;;;;5.45;100.00;99912.25;5029481;28;20025;-64
2022/09/29 00:17:40;;;;;;;9.77;8.88;;;;;;;5.43;100.00;99912.19;5029000;28;20028;-64
2022/09/29 00:20:06;;;;;;;9.43;8.52;;;;;;;5.40;100.00;99906.91;5029411;28;20029;-64
2022/09/29 00:22:31;;;;;;;9.87;8.87;;;;;;;5.36;100.00;99912.78;5029139;28;20101;-64
2022/09/29 00:24:57;;;;;;;10.45;9.43;;;;;;;5.33;100.00;99908.38;5028139;28;20469;-64
2022/09/29 00:27:22;;;;;;;10.77;8.93;;;;;;;5.31;100.00;99901.44;5029066;28;20029;-64
2022/09/29 00:29:47;;;;;;;10.03;9.13;;;;;;;5.28;100.00;99909.91;5028665;28;20037;-64
2022/09/29 00:32:13;;;;;;;9.27;8.37;;;;;;;5.25;100.00;99902.94;5028488;28;20115;-64
2022/09/29 00:34:38;;;;;;;10.13;9.18;;;;;;;5.22;100.00;99901.94;5028960;28;20028;-64
2022/09/29 00:37:04;;;;;;;11.25;9.32;;;;;;;5.18;100.00;99906.06;5010983;28;20022;-64
2022/09/29 00:39:29;;;;;;;11.07;9.47;;;;;;;5.16;100.00;99902.59;5028650;28;20113;-64
2022/09/29 00:41:56;;;;;;;10.10;9.02;;;;;;;5.14;100.00;99905.09;5028357;28;20382;-64
2022/09/29 00:44:21;;;;;;;9.82;8.65;;;;;;;5.13;100.00;99905.91;5028781;28;20040;-64
2022/09/29 00:47:00;;;;;;;9.03;8.30;;;;;;;5.10;100.00;99904.91;5028859;28;20037;-64
2022/09/29 00:49:40;;;;;;;9.80;8.80;;;;;;;5.09;100.00;99905.75;5028744;28;20029;-64
2022/09/29 00:52:35;;;;;;;9.88;8.88;;;;;;;5.07;100.00;99907.38;5027906;28;20053;-64
2022/09/29 00:55:24;;;;;;;10.80;9.43;;;;;;;5.05;100.00;99912.44;5028746;28;20083;-64
2022/09/29 00:57:59;;;;;;;8.70;7.80;;;;;;;5.03;100.00;99903.78;5028505;28;20013;-64
2022/09/29 01:00:24;;;;;;;9.53;8.53;;;;;;;4.99;100.00;99905.38;5028354;28;20519;-64
2022/09/29 01:02:56;;;;;;;9.57;8.57;;;;;;;4.96;100.00;99900.13;5028061;28;20025;-64
2022/09/29 01:05:31;;;;;;;11.83;8.47;;;;;;;4.94;100.00;99901.75;5028393;28;20040;-64
2022/09/29 01:08:01;;;;;;;9.70;8.80;;;;;;;4.93;100.00;99899.97;5028418;28;20132;-64
2022/09/29 01:10:26;;;;;;;10.90;8.20;;;;;;;4.91;100.00;99897.34;5028432;28;20075;-64
2022/09/29 01:12:52;;;;;;;10.73;9.67;;;;;;;4.91;100.00;99899.06;5028767;28;20103;-64
2022/09/29 01:15:20;;;;;;;11.07;10.00;;;;;;;4.90;100.00;99894.72;5027667;28;20152;-64
2022/09/29 01:17:46;;;;;;;10.57;9.47;;;;;;;4.88;100.00;99901.47;5028516;28;20041;-64
2022/09/29 01:20:15;;;;;;;10.50;9.30;;;;;;;4.87;100.00;99902.31;5028443;28;20017;-64
2022/09/29 01:23:05;;;;;;;10.60;9.60;;;;;;;4.87;100.00;99899.75;5027625;28;20033;-64
2022/09/29 01:26:08;;;;;;;11.07;9.60;;;;;;;4.85;100.00;99902.25;5028321;28;20447;-64
2022/09/29 01:28:51;;;;;;;11.27;8.80;;;;;;;4.86;100.00;99910.81;5028472;28;20029;-64
2022/09/29 01:31:28;;;;;;;9.33;8.33;;;;;;;4.83;100.00;99906.44;5027463;28;20044;-64
2022/09/29 01:34:13;;;;;;;9.83;8.27;;;;;;;4.80;100.00;99903.75;5027673;28;20029;-64
2022/09/29 01:37:02;;;;;;;10.20;9.17;;;;;;;4.77;100.00;99899.38;5027713;28;20079;-64
2022/09/29 01:39:33;;;;;;;9.17;8.37;;;;;;;4.76;100.00;99907.91;5027860;28;20101;-64
2022/09/29 01:42:07;;;;;;;10.15;9.02;;;;;;;4.74;100.00;99909.50;5026126;28;20083;-64
2022/09/29 01:44:41;;;;;;;10.60;8.30;;;;;;;4.72;100.00;99905.13;5027224;28;20049;-64
2022/09/29 01:47:29;;;;;;;9.17;8.37;;;;;;;4.70;100.00;99915.31;5027784;28;20087;-64
2022/09/29 01:50:00;;;;;;;9.70;8.70;;;;;;;4.68;100.00;99910.13;5027208;28;20040;-64
2022/09/29 01:52:30;;;;;;;10.63;8.98;;;;;;;4.67;100.00;99912.66;5027642;28;20014;-64
2022/09/29 01:55:12;;;;;;;10.17;8.97;;;;;;;4.64;100.00;99904.81;5027917;28;20103;-64
2022/09/29 01:57:53;;;;;;;10.63;8.97;;;;;;;4.60;100.00;99906.38;5027244;28;20025;-64
2022/09/29 02:00:22;;;;;;;10.13;9.13;;;;;;;4.57;100.00;99907.13;5027276;28;20427;-64
2022/09/29 02:03:10;;;;;;;10.67;9.67;;;;;;;4.54;100.00;99904.44;5026812;28;20465;-64
2022/09/29 02:05:43;;;;;;;9.63;8.63;;;;;;;4.52;100.00;99903.50;5027095;28;20043;-64
2022/09/29 02:08:13;;;;;;;10.77;9.07;;;;;;;4.50;100.00;99910.25;5027551;28;20017;-64
2022/09/29 02:10:51;;;;;;;9.93;9.03;;;;;;;4.49;100.00;99913.63;5027211;28;20108;-64
2022/09/29 02:13:18;;;;;;;10.00;9.03;;;;;;;4.47;100.00;99907.56;5027415;28;20028;-64
2022/09/29 02:15:46;;;;;;;10.57;9.57;;;;;;;4.46;100.00;99910.94;5027743;28;20037;-64
2022/09/29 02:18:21;;;;;;;13.73;9.90;;;;;;;4.45;100.00;99916.88;5026852;28;20036;-64
2022/09/29 02:20:48;;;;;;;11.67;10.03;;;;;;;4.41;100.00;99910.75;5027360;28;20037;-64
2022/09/29 02:23:13;;;;;;;10.33;9.43;;;;;;;4.40;100.00;99902.97;5027133;28;20560;-64
2022/09/29 02:25:39;;;;;;;13.37;11.83;;;;;;;4.37;100.00;99913.13;5009430;28;20033;-64
2022/09/29 02:28:06;;;;;;;10.43;9.53;;;;;;;4.36;100.00;99911.34;5026517;28;20033;-64
2022/09/29 02:30:32;;;;;;;12.87;10.97;;;;;;;4.37;100.00;99913.13;5027372;28;20390;-64
2022/09/29 02:32:57;;;;;;;12.00;10.50;;;;;;;4.36;100.00;99914.81;5027207;28;20033;-64
2022/09/29 02:35:35;;;;;;;11.27;10.17;;;;;;;4.37;100.00;99913.13;5027192;28;20028;-64
2022/09/29 02:38:10;;;;;;;13.47;12.17;;;;;;;4.37;100.00;99913.97;5026820;28;20474;-64
2022/09/29 02:40:42;;;;;;;14.43;11.27;;;;;;;4.36;100.00;99913.91;5026997;28;20056;-64
2022/09/29 02:43:10;;;;;;;;;;;;;;;4.36;100.00;99908.78;5026496;28;20052;-64
2022/09/29 02:46:06;;;;;;;13.07;11.50;;;;;;;4.35;100.00;99913.06;5026747;28;20424;-64
2022/09/29 02:48:47;;;;;;;12.30;11.00;;;;;;;4.34;100.00;99913.84;5031494;28;20436;-64
2022/09/29 02:51:17;;;;;;;12.75;10.52;;;;;;;4.34;100.00;99918.97;5030968;28;20120;-64
2022/09/29 02:53:54;;;;;;;11.77;10.67;;;;;;;4.30;100.00;99912.84;5031050;28;20045;-64
2022/09/29 02:56:25;;;;;;;11.27;10.17;;;;;;;4.26;100.00;99910.97;5030801;28;20485;-64
2022/09/29 02:58:54;;;;;;;11.13;9.90;;;;;;;4.24;100.00;99907.47;5030747;28;20075;-64
2022/09/29 03:01:20;;;;;;;12.73;10.10;;;;;;;4.25;100.00;99919.47;5031069;28;20608;-64
2022/09/29 03:03:45;;;;;;;11.17;10.03;;;;;;;4.26;100.00;99910.09;5030770;28;20112;-64
2022/09/29 03:06:12;;;;;;;10.60;9.60;;;;;;;4.26;100.00;99910.97;5030045;28;20108;-64
2022/09/29 03:08:38;;;;;;;10.03;9.20;;;;;;;4.27;100.00;99917.84;5030534;28;20767;-64
2022/09/29 03:11:03;;;;;;;11.13;10.07;;;;;;;4.25;100.00;99914.34;5030019;28;20021;-64
2022/09/29 03:13:28;;;;;;;10.77;9.67;;;;;;;4.25;100.00;99908.31;5030759;28;20060;-64
2022/09/29 03:15:54;;;;;;;11.07;10.07;;;;;;;4.27;100.00;99912.72;5030315;28;20053;-64
2022/09/29 03:18:21;;;;;;;11.13;10.07;;;;;;;4.25;100.00;99909.22;5030475;28;20504;-64
2022/09/29 03:20:46;;;;;;;11.03;10.03;;;;;;;4.23;100.00;99910.81;5030049;28;20055;-64
2022/09/29 03:23:12;;;;;;;11.40;10.10;;;;;;;4.22;100.00;99911.66;5030656;28;20021;-64
2022/09/29 03:25:37;;;;;;;10.53;9.43;;;;;;;4.18;100.00;99910.63;5030326;28;20029;-64
2022/09/29 03:28:03;;;;;;;10.77;9.70;;;;;;;4.17;100.00;99920.84;5030252;28;20021;-64
2022/09/29 03:30:28;;;;;;;10.53;9.53;;;;;;;4.15;100.00;99912.19;5030112;28;20060;-63
2022/09/29 03:32:53;;;;;;;9.53;8.70;;;;;;;4.10;100.00;99913.69;5029695;28;20045;-64
2022/09/29 03:35:19;;;;;;;10.70;9.60;;;;;;;4.05;100.00;99906.66;5030443;28;20017;-64
2022/09/29 03:37:44;;;;;;;10.67;9.60;;;;;;;4.02;100.00;99915.91;5030051;28;20029;-64
2022/09/29 03:40:10;;;;;;;10.77;9.87;;;;;;;4.00;100.00;99914.94;5030071;28;20021;-64
2022/09/29 03:42:35;;;;;;;10.53;9.63;;;;;;;3.97;100.00;99920.84;5029905;28;20500;-64
2022/09/29 03:45:00;;;;;;;9.90;8.97;;;;;;;3.95;100.00;99922.44;5029879;28;20071;-64
2022/09/29 03:47:26;;;;;;;9.73;8.80;;;;;;;3.91;100.00;99924.00;5030181;28;20017;-64
2022/09/29 03:49:51;;;;;;;10.43;9.37;;;;;;;3.89;100.00;99922.16;5030296;28;20021;-64
2022/09/29 03:52:17;;;;;;;11.10;9.90;;;;;;;3.86;100.00;99919.47;5029530;28;20036;-64
2022/09/29 03:54:43;;;;;;;10.50;9.37;;;;;;;3.84;100.00;99922.84;5030293;28;20439;-64
2022/09/29 03:57:08;;;;;;;11.10;10.00;;;;;;;3.81;100.00;99916.72;5029800;28;20053;-64
2022/09/29 03:59:33;;;;;;;10.90;9.80;;;;;;;3.79;100.00;99929.47;5029572;28;20059;-64
2022/09/29 04:01:58;;;;;;;10.63;9.53;;;;;;;3.80;100.00;99926.09;5029904;28;20512;-64
2022/09/29 04:04:24;;;;;;;10.13;9.23;;;;;;;3.79;100.00;99923.47;5029493;28;20029;-64
2022/09/29 04:06:49;;;;;;;10.07;9.13;;;;;;;3.77;100.00;99920.81;5029674;28;20512;-64
2022/09/29 04:09:14;;;;;;;10.73;9.73;;;;;;;3.74;100.00;99925.81;5029097;28;20503;-64
2022/09/29 04:11:40;;;;;;;11.47;10.23;;;;;;;3.71;100.00;99930.78;5029527;28;20033;-64
2022/09/29 04:14:05;;;;;;;11.97;10.70;;;;;;;3.67;100.00;99932.34;5029475;28;20025;-64
2022/09/29 04:16:31;;;;;;;11.27;10.10;;;;;;;3.65;100.00;99935.66;5029008;28;20430;-64
2022/09/29 04:18:57;;;;;;;10.67;9.67;;;;;;;3.62;100.00;99935.53;5029236;28;20465;-64
2022/09/29 04:21:22;;;;;;;11.10;10.00;;;;;;;3.62;100.00;99940.66;5029559;28;20025;-64
2022/09/29 04:23:48;;;;;;;11.40;10.20;;;;;;;3.60;100.00;99933.75;5029466;28;20120;-64
2022/09/29 04:26:14;;;;;;;12.40;11.13;;;;;;;3.63;100.00;99942.38;5029071;28;20136;-64
2022/09/29 04:28:39;;;;;;;11.73;10.53;;;;;;;3.61;100.00;99942.31;5028962;28;20100;-64
2022/09/29 04:31:05;;;;;;;12.03;10.60;;;;;;;3.61;100.00;99934.63;5029056;28;20037;-64
2022/09/29 04:33:31;;;;;;;16.03;11.20;;;;;;;3.59;100.00;99943.94;5029181;28;20515;-64
2022/09/29 04:35:57;;;;;;;10.87;9.87;;;;;;;3.57;100.00;99943.88;5029081;28;20513;-64
2022/09/29 04:38:23;;;;;;;11.23;9.90;;;;;;;3.58;100.00;99942.19;5028890;28;20029;-64
2022/09/29 04:40:48;;;;;;;11.67;10.57;;;;;;;3.57;100.00;99943.88;5028358;28;20473;-64
2022/09/29 04:43:14;;;;;;;12.07;10.73;;;;;;;3.56;100.00;99946.34;5029015;28;20053;-64
2022/09/29 04:45:39;;;;;;;11.87;10.77;;;;;;;3.56;100.00;99947.22;5028772;28;20080;-64
2022/09/29 04:48:04;;;;;;;11.63;10.07;;;;;;;3.54;100.00;99953.97;5028643;28;20013;-64
2022/09/29 04:50:30;;;;;;;11.60;10.07;;;;;;;3.51;100.00;99953.81;5029073;28;20055;-64
2022/09/29 04:52:56;;;;;;;11.23;9.87;;;;;;;3.48;100.00;99951.13;5028812;28;20515;-64
2022/09/29 04:55:21;;;;;;;11.13;10.13;;;;;;;3.49;100.00;99952.84;5029176;28;20029;-64
2022/09/29 04:57:48;;;;;;;11.00;9.93;;;;;;;3.47;100.00;99950.22;5028562;28;20025;-64
2022/09/29 05:00:14;;;;;;;12.87;11.40;;;;;;;3.47;100.00;99952.78;5028166;28;20061;-64
2022/09/29 05:02:39;;;;;;;12.37;11.27;;;;;;;3.47;100.00;99957.91;5028204;28;20041;-64
2022/09/29 05:05:06;;;;;;;12.03;10.63;;;;;;;3.46;100.00;99955.28;5028434;28;20103;-64
2022/09/29 05:07:34;;;;;;;12.30;11.03;;;;;;;3.41;100.00;99955.06;5027786;28;20033;-64
2022/09/29 05:09:59;;;;;;;12.30;9.83;;;;;;;3.40;100.00;99966.13;5028083;28;20417;-64
2022/09/29 05:12:24;;;;;;;12.87;10.73;;;;;;;3.37;100.00;99971.09;5038635;28;20047;-64
2022/09/29 05:14:50;;;;;;;12.27;10.97;;;;;;;3.36;100.00;99969.34;5028887;28;20017;-64
2022/09/29 05:17:15;;;;;;;12.40;10.70;;;;;;;3.34;100.00;99970.97;5026884;28;20025;-64
2022/09/29 05:19:40;;;;;;;12.97;11.77;;;;;;;3.33;100.00;99975.19;5028400;28;20088;-64
2022/09/29 05:22:05;;;;;;;12.00;10.97;;;;;;;3.32;100.00;99978.56;5038651;28;20017;-64
2022/09/29 05:24:31;;;;;;;12.57;10.83;;;;;;;3.31;100.00;99981.94;5026087;28;20107;-64
2022/09/29 05:26:56;;;;;;;11.57;10.53;;;;;;;3.30;100.00;99987.88;5026649;28;20014;-64
2022/09/29 05:29:22;;;;;;;12.80;11.50;;;;;;;3.28;100.00;99986.91;5025760;28;20351;-64
2022/09/29 05:31:48;;;;;;;13.70;12.20;;;;;;;3.29;100.00;99988.66;5025719;28;20625;-64
2022/09/29 05:34:13;;;;;;;14.23;12.93;;;;;;;3.27;100.00;99992.84;5026217;28;20029;-64
2022/09/29 05:36:38;;;;;;;13.40;12.10;;;;;;;3.28;100.00;99984.34;5007784;28;20033;-64
2022/09/29 05:39:04;;;;;;;12.70;11.47;;;;;;;3.30;100.00;99989.53;5026107;28;20116;-64
2022/09/29 05:41:29;;;;;;;13.47;12.07;;;;;;;3.31;100.00;99992.16;5038125;28;20389;-64
2022/09/29 05:43:55;;;;;;;12.87;11.67;;;;;;;3.33;100.00;99998.25;5030658;28;20081;-64
2022/09/29 05:46:21;;;;;;;13.57;12.10;;;;;;;3.35;100.00;100004.31;5027184;28;20036;-64
2022/09/29 05:48:50;;;;;;;13.27;11.87;;;;;;;3.36;100.00;99998.38;5026688;28;20030;-64
2022/09/29 05:51:17;;;;;;;13.30;11.73;;;;;;;3.38;100.00;99998.50;5025524;28;20436;-64
2022/09/29 05:53:42;;;;;;;12.63;11.43;;;;;;;3.39;100.00;99997.66;5027117;28;20108;-64
2022/09/29 05:56:11;;;;;;;12.73;11.00;;;;;;;3.37;100.00;100001.84;5039502;28;20518;-64
2022/09/29 05:58:37;;;;;;;13.50;11.13;;;;;;;3.38;100.00;100002.72;5043057;28;20022;-64
2022/09/29 06:01:12;;;;;;;13.23;12.03;;;;;;;3.36;100.00;100008.63;5033589;28;20029;-64
2022/09/29 06:03:38;;;;;;;12.80;11.40;;;;;;;3.36;100.00;100011.19;5027240;28;20116;-64
2022/09/29 06:06:15;;;;;;;13.30;11.73;;;;;;;3.37;100.00;100017.22;5027582;28;20116;-64
2022/09/29 06:08:41;;;;;;;13.17;11.77;;;;;;;3.38;100.00;100018.09;5026955;28;20025;-64
2022/09/29 06:11:09;;;;;;;12.80;11.50;;;;;;;3.41;100.00;100014.00;5027123;28;20025;-64
2022/09/29 06:13:39;;;;;;;14.23;12.80;;;;;;;3.44;100.00;100010.69;5027466;28;20029;-64
2022/09/29 06:16:06;;;;;;;15.00;13.60;;;;;;;3.47;100.00;100014.28;5025740;28;20033;-64
2022/09/29 06:18:31;;;;;;;15.90;14.40;;;;;;;3.51;100.00;100014.44;5033254;28;20033;-64
2022/09/29 06:21:01;;;;;;;14.13;12.67;;;;;;;3.54;100.00;100019.72;5027102;28;20037;-64
2022/09/29 06:23:27;;;;;;;15.67;13.20;;;;;;;3.56;100.00;100026.63;5027168;28;20037;-64
2022/09/29 06:26:00;;;;;;;15.03;13.40;;;;;;;3.58;100.00;100026.75;5027267;28;20021;-64
2022/09/29 06:28:27;;;;;;;15.10;13.57;;;;;;;3.59;100.00;100021.69;5026949;28;20032;-64
2022/09/29 06:30:57;;;;;;;16.20;14.50;;;;;;;3.65;100.00;100033.03;5026285;28;20084;-64
2022/09/29 06:33:22;;;;;;;16.47;14.80;;;;;;;3.68;100.00;100028.03;5026766;28;20037;-64
2022/09/29 06:38:32;;;;;;;18.10;15.90;;;;;;;3.78;100.00;100039.63;5026731;28;20084;-64
2022/09/29 06:40:58;;;;;;;16.70;15.07;;;;;;;3.82;100.00;100044.94;5026726;28;20036;-64
2022/09/29 06:43:23;;;;;;;17.50;15.67;;;;;;;3.87;100.00;100044.28;5029308;28;20482;-64
2022/09/29 06:45:49;;;;;;;17.33;15.47;;;;;;;3.90;100.00;100045.31;5026652;28;20036;-64
2022/09/29 06:48:14;;;;;;;19.43;17.43;;;;;;;3.95;100.00;100045.50;5025286;28;20049;-64
2022/09/29 06:50:39;;;;;;;17.80;16.00;;;;;;;4.00;100.00;100040.59;5025510;28;20030;-64
2022/09/29 06:53:04;;;;;;;18.20;16.30;;;;;;;4.04;100.00;100042.50;5026629;28;20025;-64
2022/09/29 06:55:30;;;;;;;19.07;17.17;;;;;;;4.09;100.00;100043.59;5025647;28;20052;-64
2022/09/29 06:57:55;;;;;;;18.90;17.10;;;;;;;4.15;100.00;100053.25;5026142;28;20405;-64
2022/09/29 07:00:20;;;;;;;18.97;16.97;;;;;;;4.22;100.00;100046.69;5026625;28;20040;-64
2022/09/29 07:02:46;;;;;;;18.57;16.67;;;;;;;4.27;100.00;100053.81;5026494;28;20810;-64
2022/09/29 07:05:11;;;;;;;20.20;18.10;;;;;;;4.33;100.00;100054.06;5026401;28;20032;-64
2022/09/29 07:07:36;;;;;;;20.90;18.70;;;;;;;4.38;100.00;100058.53;5026736;28;20025;-64
2022/09/29 07:10:02;;;;;;;21.07;18.87;;;;;;;4.43;100.00;100059.59;5026582;28;20088;-64
2022/09/29 07:12:27;;;;;;;20.03;17.87;;;;;;;4.47;100.00;100064.06;5026794;28;20037;-64
2022/09/29 07:14:52;;;;;;;19.33;17.43;;;;;;;4.54;100.00;100060.97;5026159;28;20401;-62
2022/09/29 07:17:17;;;;;;;23.33;18.77;;;;;;;4.63;100.00;100069.88;5026346;28;20112;-63
2022/09/29 07:19:43;;;;;;;21.23;19.03;;;;;;;4.73;100.00;100060.91;5026074;28;20375;-62
2022/09/29 07:22:08;;;;;;;20.10;18.10;;;;;;;4.82;100.00;100073.25;5025465;28;20025;-63
2022/09/29 07:24:34;;;;;;;20.57;18.40;;;;;;;4.88;100.00;100066.69;5024014;28;20022;-63
2022/09/29 07:27:00;;;;;;;22.53;20.20;;;;;;;5.08;100.00;100081.19;5026225;28;20036;-63
2022/09/29 07:29:25;;;;;;;25.87;20.73;;;;;;;5.35;100.00;100075.44;5026332;28;20226;-63
2022/09/29 07:31:51;;;;;;;22.80;20.47;;;;;;;5.73;100.00;100075.25;5025736;28;20021;-63
2022/09/29 07:34:17;;;;;;;22.23;20.03;;;;;;;6.27;100.00;100078.16;5029634;28;20117;-63
2022/09/29 07:36:43;;;;;;;22.40;20.20;;;;;;;6.96;100.00;100079.75;5030374;28;20053;-63
2022/09/29 07:39:08;;;;;;;17.38;15.63;;;;;;;7.82;100.00;100079.09;5029907;28;20057;-63
2022/09/29 07:41:34;;;;;;;18.13;16.30;;;;;;;8.53;100.00;100080.31;5029436;28;20080;-63
2022/09/29 07:43:59;;;;;;;14.52;13.13;;;;;;;9.19;100.00;100082.06;5029817;28;20048;-63
2022/09/29 07:46:25;;;;;;;13.85;12.50;;;;;;;9.81;100.00;100084.38;5030066;28;20064;-64
2022/09/29 07:48:50;;;;;;;13.27;10.75;;;;;;;10.32;100.00;100085.53;5030292;28;20686;-64
2022/09/29 07:51:18;;;;;;;11.15;10.15;;;;;;;10.68;100.00;100086.25;5030188;28;20049;-63
2022/09/29 07:53:44;;;;;;;12.13;10.18;;;;;;;11.03;100.00;100086.88;5029927;28;20022;-63
2022/09/29 07:56:11;;;;;;;11.70;10.68;;;;;;;11.44;100.00;100093.63;5029643;28;20420;-64
2022/09/29 07:58:37;;;;;;;12.88;11.63;;;;;;;11.71;100.00;100096.66;5029438;28;20038;-64
2022/09/29 08:01:05;;;;;;;13.10;10.45;;;;;;;12.03;100.00;100091.06;5029644;28;20110;-63
2022/09/29 08:03:30;;;;;;;11.68;10.55;;;;;;;12.39;99.88;100094.16;5029850;28;20025;-64
2022/09/29 08:05:59;;;;;;;10.90;9.90;;;;;;;12.44;98.99;100102.00;5029486;28;20044;-65
2022/09/29 08:08:24;;;;;;;10.82;9.65;;;;;;;12.60;93.61;100103.06;5029931;28;20018;-64
2022/09/29 08:10:50;;;;;;;13.25;9.65;;;;;;;12.94;94.84;100106.06;5030006;28;20033;-64
2022/09/29 08:13:16;;;;;;;10.40;9.18;;;;;;;13.29;92.95;100101.19;5029354;28;20018;-64
2022/09/29 08:15:41;;;;;;;10.73;9.60;;;;;;;13.44;93.21;100106.50;5029090;28;20025;-64
2022/09/29 08:18:06;;;;;;;11.57;9.50;;;;;;;13.60;91.41;100111.84;5029588;28;20013;-64
2022/09/29 08:20:34;;;;;;;10.02;8.63;;;;;;;13.73;87.83;100114.56;5029896;28;20113;-64
2022/09/29 08:22:59;;;;;;;9.77;8.30;;;;;;;13.62;86.93;100114.47;5029379;28;20021;-62
2022/09/29 08:25:25;;;;;;;8.68;7.82;;;;;;;13.40;88.37;100114.28;5029397;28;20107;-62
2022/09/29 08:27:51;;;;;;;9.68;8.32;;;;;;;13.05;91.12;100119.16;5029165;28;20040;-62
2022/09/29 08:30:17;;;;;;;10.65;8.27;;;;;;;12.59;91.91;100129.94;5028737;28;20032;-62
2022/09/29 08:32:43;;;;;;;9.38;8.52;;;;;;;12.10;93.90;100125.81;5029623;28;20021;-62
2022/09/29 08:35:09;;;;;;;11.55;9.27;;;;;;;11.81;96.66;100131.41;5029513;28;20017;-62
2022/09/29 08:37:37;;;;;;;12.05;9.07;;;;;;;11.67;100.00;100131.19;5028944;28;20599;-62
2022/09/29 08:40:03;;;;;;;10.50;9.35;;;;;;;11.57;100.00;100141.41;5029183;28;20067;-61
2022/09/29 08:42:59;;;;;;;10.93;9.82;;;;;;;11.44;100.00;100140.31;5029033;28;20424;-62
2022/09/29 08:45:31;;;;;;;10.32;9.27;;;;;;;11.29;100.00;100140.94;5028312;28;20037;-62
2022/09/29 08:48:05;;;;;;;11.98;9.65;;;;;;;11.36;100.00;100140.19;5028998;28;20600;-62
2022/09/29 08:50:36;;;;;;;14.65;10.23;;;;;;;11.36;100.00;100140.19;5028606;28;20029;-62
2022/09/29 08:53:09;;;;;;;10.48;9.32;;;;;;;11.24;100.00;100147.78;5028798;28;20056;-62
2022/09/29 08:55:45;;;;;;;10.90;9.10;;;;;;;11.31;100.00;100146.16;5029201;28;20033;-62
2022/09/29 08:58:13;;;;;;;10.52;9.15;;;;;;;11.37;100.00;100147.13;5029104;28;20582;-62
2022/09/29 09:01:04;;;;;;;14.35;9.55;;;;;;;11.43;100.00;100154.16;5028710;28;20056;-62
2022/09/29 09:03:41;;;;;;;12.02;9.43;;;;;;;11.41;100.00;100156.72;5028230;28;20044;-62
2022/09/29 09:06:27;;;;;;;10.63;9.63;;;;;;;11.44;100.00;100155.88;5028458;28;20060;-62
2022/09/29 09:08:57;;;;;;;10.48;9.40;;;;;;;11.46;100.00;100154.19;5028587;28;20026;-62
2022/09/29 09:11:43;;;;;;;11.23;9.90;;;;;;;11.47;100.00;100155.97;5027890;28;20473;-61
2022/09/29 09:14:44;;;;;;;10.25;9.23;;;;;;;11.49;100.00;100162.06;5028724;28;20469;-62
2022/09/29 09:17:40;;;;;;;10.25;9.15;;;;;;;11.49;100.00;100161.16;5028633;28;20053;-61
2022/09/29 09:20:17;;;;;;;10.27;9.20;;;;;;;11.42;100.00;100162.78;5028465;28;20500;-62
2022/09/29 09:23:00;;;;;;;10.80;9.63;;;;;;;11.32;100.00;100172.13;5027807;28;20392;-62
2022/09/29 09:25:37;;;;;;;15.63;10.15;;;;;;;11.39;100.00;100162.72;5028282;28;20026;-62
2022/09/29 09:28:21;;;;;;;11.13;10.00;;;;;;;11.46;100.00;100159.38;5028078;28;20075;-62
2022/09/29 09:30:56;;;;;;;9.88;8.55;;;;;;;11.62;100.00;100165.72;5028014;28;20542;-62
2022/09/29 09:33:36;;;;;;;12.70;9.63;;;;;;;11.71;100.00;100170.19;5028102;28;20560;-62
2022/09/29 09:36:11;;;;;;;13.18;10.23;;;;;;;11.77;100.00;100159.03;5027972;28;20473;-62
2022/09/29 09:38:45;;;;;;;11.77;9.57;;;;;;;11.77;100.00;100165.09;5027564;28;20032;-62
2022/09/29 09:41:15;;;;;;;8.95;8.05;;;;;;;11.75;100.00;100160.72;5027838;28;20025;-62
2022/09/29 09:43:44;;;;;;;8.55;7.68;;;;;;;11.74;99.27;100167.66;5027152;28;20137;-62
2022/09/29 09:46:25;;;;;;;9.50;8.50;;;;;;;11.74;100.00;100162.47;5028237;28;20108;-62
2022/09/29 09:49:17;;;;;;;10.27;7.38;;;;;;;11.71;100.00;100164.13;5027485;28;20022;-61
2022/09/29 09:51:48;;;;;;;9.27;8.32;;;;;;;11.70;100.00;100165.84;5027968;28;20025;-62
2022/09/29 09:54:39;;;;;;;10.15;8.13;;;;;;;11.69;100.00;100165.81;5027647;28;20235;-62
2022/09/29 09:57:41;;;;;;;8.20;7.10;;;;;;;11.71;100.00;100170.19;5026676;28;20065;-62
2022/09/29 10:00:12;;;;;;;9.40;7.28;;;;;;;11.73;100.00;100167.59;5027760;28;20632;-61
2022/09/29 10:02:43;;;;;;;6.28;5.53;;;;;;;11.74;100.00;100172.84;5027600;28;20017;-61
2022/09/29 10:05:25;;;;;;;6.75;5.40;;;;;;;11.77;100.00;100172.88;5028069;28;20021;-62
2022/09/29 10:07:52;;;;;;;6.60;5.85;;;;;;;11.78;100.00;100171.19;5027146;28;20032;-62
2022/09/29 10:10:28;;;;;;;5.95;4.30;;;;;;;11.84;99.08;100178.16;5027404;28;20104;-61
2022/09/29 10:13:07;;;;;;;7.82;5.00;;;;;;;11.78;94.11;100181.56;5027457;28;20021;-62
2022/09/29 10:15:39;;;;;;;6.13;4.72;;;;;;;11.83;96.93;100179.03;5027404;28;20056;-62
2022/09/29 10:18:15;;;;;;;4.85;4.35;;;;;;;11.91;99.39;100169.63;5026840;28;20497;-61
2022/09/29 10:20:41;;;;;;;7.53;4.35;;;;;;;12.00;99.05;100177.56;5027100;28;20033;-62
2022/09/29 10:23:30;;;;;;;4.40;3.90;;;;;;;12.13;99.54;100177.78;5026978;28;20014;-61
2022/09/29 10:26:00;;;;;;;4.25;3.00;;;;;;;12.29;98.82;100188.41;5027426;28;20124;-62
2022/09/29 10:28:35;;;;;;;3.55;2.90;;;;;;;12.42;95.61;100184.25;5026658;28;20481;-62
2022/09/29 10:31:00;;;;;;;3.53;3.17;;;;;;;12.41;89.16;100187.72;5027066;28;20033;-62
2022/09/29 10:33:27;;;;;;;3.97;2.88;;;;;;;12.51;87.61;100192.19;5026837;28;20018;-62
2022/09/29 10:36:06;;;;;;;4.78;2.75;;;;;;;12.61;87.87;100194.03;5027335;28;20026;-62
2022/09/29 10:38:32;;;;;;;3.90;1.42;;;;;;;12.76;85.05;100194.22;5027013;28;20021;-62
2022/09/29 10:41:07;;;;;;;3.05;1.85;;;;;;;12.91;84.82;100189.22;5026968;28;20068;-62
2022/09/29 10:43:40;;;;;;;3.88;2.28;;;;;;;13.14;87.08;100191.22;5026362;28;20045;-62
2022/09/29 10:46:47;;;;;;;2.50;2.10;;;;;;;13.23;85.26;100192.16;5026798;28;20068;-62
2022/09/29 10:49:15;;;;;;;4.65;2.13;;;;;;;13.27;84.10;100186.16;5026874;28;20033;-62
2022/09/29 10:51:56;;;;;;;2.67;1.83;;;;;;;13.37;85.38;100184.50;5026576;28;20033;-62
2022/09/29 10:54:27;;;;;;;4.33;2.87;;;;;;;13.39;83.51;100186.28;5027088;28;20033;-62
2022/09/29 10:56:54;;;;;;;3.08;2.80;;;;;;;13.46;87.44;100184.59;5026697;28;20152;-62
2022/09/29 10:59:22;;;;;;;3.10;2.72;;;;;;;13.44;80.07;100194.09;5026888;28;20025;-62
2022/09/29 11:01:52;;;;;;;2.95;1.70;;;;;;;13.57;76.92;100187.31;5026876;28;20171;-62
2022/09/29 11:04:18;;;;;;;2.72;1.70;;;;;;;13.73;79.17;100184.84;5027122;28;20052;-62
2022/09/29 11:06:43;;;;;;;3.72;2.17;;;;;;;13.97;82.83;100199.81;5026634;28;20037;-62
2022/09/29 11:09:11;;;;;;;2.47;1.67;;;;;;;14.18;82.62;100200.84;5030549;28;20013;-62
2022/09/29 11:11:39;;;;;;;2.17;1.48;;;;;;;14.34;78.38;100193.97;5030582;28;20488;-62
2022/09/29 11:14:05;;;;;;;1.73;1.50;;;;;;;14.58;81.46;100196.72;5031155;28;20029;-62
2022/09/29 11:16:36;;;;;;;6.45;1.90;;;;;;;14.78;81.91;100191.59;5030328;28;20078;-62
2022/09/29 11:19:14;;;;;;;2.38;1.63;;;;;;;14.91;79.89;100204.72;5030948;28;20021;-62
2022/09/29 11:21:59;;;;;;;3.15;2.00;;;;;;;14.88;80.94;100201.25;5030345;28;20025;-62
2022/09/29 11:24:34;;;;;;;4.45;2.03;;;;;;;14.94;77.28;100199.50;5029872;28;20026;-62
2022/09/29 11:27:18;;;;;;;2.20;2.03;;;;;;;14.98;80.29;100204.78;5030787;28;20059;-62
2022/09/29 11:30:09;;;;;;;2.50;2.00;;;;;;;14.93;76.60;100200.41;5030437;28;20079;-62
2022/09/29 11:32:50;;;;;;;1.98;1.77;;;;;;;14.77;76.84;100198.56;5030763;28;20469;-62
2022/09/29 11:35:33;;;;;;;3.60;2.28;;;;;;;14.63;78.68;100208.03;5030295;28;20028;-63